Time;durP1;ratioP1;P1;durP2;ratioP2;P2;SDS_P1;SDS_P2;PMS_P1;PMS_P2;Temp;Humidity;BMP_temperature;BMP_pressure;BME280_temperature;BME280_humidity;BME280_pressure;Samples;Min_cycle;Max_cycle;Signal;HPM_P1;HPM_P2
2021/11/03 00:01:33;;;;;;;21.20;14.55;;;6.20;99.90;;;;;;5034381;28;20411;-78
2021/11/03 00:04:00;;;;;;;26.47;15.20;;;6.10;99.90;;;;;;5037476;28;20417;-79
2021/11/03 00:06:26;;;;;;;24.40;14.70;;;6.10;99.90;;;;;;5040248;28;20466;-78
2021/11/03 00:08:52;;;;;;;24.35;14.30;;;6.00;99.90;;;;;;5035371;28;20430;-79
2021/11/03 00:11:18;;;;;;;24.75;15.60;;;6.00;99.90;;;;;;5053941;28;20448;-79
2021/11/03 00:13:44;;;;;;;24.13;16.02;;;5.90;99.90;;;;;;5046857;28;20394;-78
2021/11/03 00:16:10;;;;;;;22.17;13.20;;;5.90;99.90;;;;;;5040454;28;20398;-78
2021/11/03 00:18:36;;;;;;;19.02;12.73;;;6.00;99.90;;;;;;5033567;28;20437;-78
2021/11/03 00:21:03;;;;;;;20.70;14.27;;;6.00;99.90;;;;;;5036919;28;20399;-77
2021/11/03 00:23:30;;;;;;;22.35;13.55;;;5.80;99.90;;;;;;5032536;28;20883;-79
2021/11/03 00:25:56;;;;;;;18.83;13.30;;;5.80;99.90;;;;;;5028031;28;20388;-79
2021/11/03 00:28:22;;;;;;;24.37;12.90;;;5.80;99.90;;;;;;5021017;28;20399;-77
2021/11/03 00:30:51;;;;;;;22.70;13.98;;;5.80;99.90;;;;;;5038412;28;20389;-78
2021/11/03 00:33:17;;;;;;;20.40;12.70;;;5.70;99.90;;;;;;5049523;28;20434;-77
2021/11/03 00:35:43;;;;;;;20.70;11.90;;;5.80;99.90;;;;;;5034414;28;20402;-80
2021/11/03 00:38:09;;;;;;;18.70;12.70;;;5.80;99.90;;;;;;5029462;28;20413;-77
2021/11/03 00:40:35;;;;;;;16.25;12.25;;;5.80;99.90;;;;;;5033716;28;20418;-80
2021/11/03 00:43:01;;;;;;;19.33;12.57;;;5.80;99.90;;;;;;5052566;28;20915;-79
2021/11/03 00:45:26;;;;;;;18.90;12.52;;;5.70;99.90;;;;;;5037471;28;20429;-81
2021/11/03 00:47:52;;;;;;;18.63;12.30;;;5.80;99.90;;;;;;5037431;28;20383;-80
2021/11/03 00:50:18;;;;;;;19.50;12.40;;;5.80;99.90;;;;;;5036775;28;20402;-80
2021/11/03 00:52:44;;;;;;;18.50;12.50;;;5.70;99.90;;;;;;5035080;28;21023;-80
2021/11/03 00:55:10;;;;;;;20.23;12.50;;;5.70;99.90;;;;;;5037162;28;20478;-80
2021/11/03 00:57:35;;;;;;;18.85;12.40;;;5.60;99.90;;;;;;5037049;28;20468;-80
2021/11/03 01:00:06;;;;;;;21.73;12.68;;;5.60;99.90;;;;;;5035584;28;20387;-80
2021/11/03 01:02:31;;;;;;;19.05;12.52;;;5.50;99.90;;;;;;5037448;28;20411;-80
2021/11/03 01:04:57;;;;;;;20.98;12.80;;;5.50;99.90;;;;;;5037128;28;20402;-80
2021/11/03 01:07:23;;;;;;;17.70;12.30;;;5.50;99.90;;;;;;5036982;28;20434;-80
2021/11/03 01:09:48;;;;;;;17.47;11.97;;;5.50;99.90;;;;;;5038065;28;20403;-80
2021/11/03 01:12:14;;;;;;;16.40;10.83;;;5.50;99.90;;;;;;5032604;28;20385;-80
2021/11/03 01:14:40;;;;;;;17.27;11.70;;;5.60;99.90;;;;;;5035660;28;20440;-80
2021/11/03 01:17:06;;;;;;;16.65;11.40;;;5.60;99.90;;;;;;5034452;28;20415;-79
2021/11/03 01:19:32;;;;;;;20.25;11.45;;;5.50;99.90;;;;;;5047167;23;20406;-80
2021/11/03 01:21:58;;;;;;;17.75;11.85;;;5.60;99.90;;;;;;5004460;28;20398;-78
2021/11/03 01:24:25;;;;;;;19.98;11.45;;;5.60;99.90;;;;;;5001576;28;20437;-77
2021/11/03 01:26:50;;;;;;;17.13;11.70;;;5.60;99.90;;;;;;4984247;28;20392;-79
2021/11/03 01:29:16;;;;;;;16.20;11.05;;;5.60;99.90;;;;;;5014446;28;20406;-78
2021/11/03 01:31:42;;;;;;;17.70;11.17;;;5.60;99.90;;;;;;5002278;28;20476;-79
2021/11/03 01:34:07;;;;;;;18.63;10.70;;;5.60;99.90;;;;;;5002799;28;20405;-79
2021/11/03 01:36:33;;;;;;;19.20;11.23;;;5.60;99.90;;;;;;5000066;28;20514;-78
2021/11/03 01:38:59;;;;;;;16.00;11.10;;;5.60;99.90;;;;;;4999018;28;20405;-79
2021/11/03 01:41:25;;;;;;;15.63;11.37;;;5.60;99.90;;;;;;5000775;28;20398;-78
2021/11/03 01:44:06;;;;;;;16.75;10.55;;;5.70;99.90;;;;;;5002405;28;20457;-79
2021/11/03 01:46:38;;;;;;;21.77;10.52;;;5.70;99.90;;;;;;5009542;28;20394;-78
2021/11/03 01:49:12;;;;;;;18.33;11.63;;;5.70;99.90;;;;;;5013027;28;20402;-79
2021/11/03 01:51:47;;;;;;;15.27;10.50;;;5.60;99.90;;;;;;5001406;28;20897;-78
2021/11/03 01:54:18;;;;;;;15.52;10.55;;;5.60;99.90;;;;;;4998774;28;20401;-78
2021/11/03 01:56:44;;;;;;;19.75;11.65;;;5.60;99.90;;;;;;5001557;28;21176;-79
2021/11/03 01:59:39;;;;;;;19.65;11.57;;;5.70;99.90;;;;;;5009973;28;20417;-78
2021/11/03 02:02:06;;;;;;;17.85;11.18;;;5.60;99.90;;;;;;4981323;28;20466;-79
2021/11/03 02:04:33;;;;;;;17.27;10.93;;;5.70;99.90;;;;;;4995617;28;20405;-78
2021/11/03 02:07:02;;;;;;;17.17;11.70;;;5.70;99.90;;;;;;5005779;28;20400;-78
2021/11/03 02:09:28;;;;;;;18.35;10.48;;;5.60;99.90;;;;;;5009859;28;20434;-78
2021/11/03 02:11:54;;;;;;;16.70;11.20;;;5.60;99.90;;;;;;4998749;28;20406;-78
2021/11/03 02:14:20;;;;;;;17.48;10.70;;;5.60;99.90;;;;;;5000383;28;20875;-78
2021/11/03 02:16:49;;;;;;;14.63;10.03;;;5.60;99.90;;;;;;5007306;28;20922;-79
2021/11/03 02:19:21;;;;;;;16.95;10.30;;;5.70;99.90;;;;;;5017894;28;20405;-78
2021/11/03 02:21:58;;;;;;;16.30;9.38;;;5.70;99.90;;;;;;5005177;28;20398;-80
2021/11/03 02:24:31;;;;;;;18.08;9.55;;;5.80;99.90;;;;;;5003790;28;20394;-79
2021/11/03 02:26:59;;;;;;;11.48;8.82;;;5.80;99.90;;;;;;5018481;28;20400;-78
2021/11/03 02:29:25;;;;;;;11.52;8.45;;;5.80;99.90;;;;;;5035883;28;20435;-77
2021/11/03 02:31:57;;;;;;;14.57;8.57;;;5.90;99.90;;;;;;5015313;28;20399;-77
2021/11/03 02:34:28;;;;;;;11.60;8.90;;;6.00;99.90;;;;;;5016766;28;20432;-79
2021/11/03 02:37:20;;;;;;;21.02;8.70;;;5.90;99.90;;;;;;5016142;28;20416;-77
2021/11/03 02:39:51;;;;;;;11.18;7.70;;;5.90;99.90;;;;;;5015504;28;20437;-78
2021/11/03 02:42:17;;;;;;;11.13;7.63;;;5.90;99.90;;;;;;5013901;28;20899;-77
2021/11/03 02:44:46;;;;;;;13.25;8.27;;;5.80;99.90;;;;;;5007769;28;20420;-79
2021/11/03 02:47:11;;;;;;;11.73;8.30;;;5.80;99.90;;;;;;4998964;28;20401;-77
2021/11/03 02:49:38;;;;;;;10.70;7.77;;;5.80;99.90;;;;;;5010509;28;20398;-79
2021/11/03 02:52:19;;;;;;;9.95;7.85;;;5.80;99.90;;;;;;5010511;28;20770;-79
2021/11/03 02:54:44;;;;;;;10.13;7.68;;;5.80;99.90;;;;;;5007156;28;20406;-77
2021/11/03 02:57:10;;;;;;;11.15;8.25;;;5.90;99.90;;;;;;5006958;28;20418;-79
2021/11/03 02:59:36;;;;;;;10.53;8.20;;;5.90;99.90;;;;;;5011494;28;20453;-78
2021/11/03 03:02:04;;;;;;;12.20;8.13;;;5.80;99.90;;;;;;5002295;28;20558;-78
2021/11/03 03:04:33;;;;;;;12.13;8.77;;;5.80;99.90;;;;;;5002551;28;20485;-79
2021/11/03 03:06:59;;;;;;;18.27;10.07;;;5.70;99.90;;;;;;5004896;28;20432;-80
2021/11/03 03:09:25;;;;;;;13.75;9.05;;;5.60;99.90;;;;;;5004288;28;20430;-80
2021/11/03 03:11:56;;;;;;;17.77;10.40;;;5.60;99.90;;;;;;5006263;28;20438;-79
2021/11/03 03:14:25;;;;;;;12.05;9.02;;;5.60;99.90;;;;;;4991479;28;20455;-79
2021/11/03 03:16:50;;;;;;;17.90;10.18;;;5.50;99.90;;;;;;4999089;28;20475;-79
2021/11/03 03:19:17;;;;;;;13.77;9.77;;;5.50;99.90;;;;;;5007559;28;20419;-79
2021/11/03 03:21:42;;;;;;;16.73;9.73;;;5.60;99.90;;;;;;5010710;28;20422;-79
2021/11/03 03:24:10;;;;;;;14.60;9.57;;;5.60;99.90;;;;;;5011515;28;20437;-77
2021/11/03 03:26:35;;;;;;;11.93;9.05;;;5.60;99.90;;;;;;5009767;28;20429;-78
2021/11/03 03:29:01;;;;;;;13.77;9.60;;;5.70;99.90;;;;;;5010809;28;20462;-78
2021/11/03 03:31:28;;;;;;;12.32;9.05;;;5.60;99.90;;;;;;5009123;28;20477;-77
2021/11/03 03:33:57;;;;;;;14.73;9.98;;;5.70;99.90;;;;;;5024442;28;20433;-79
2021/11/03 03:36:23;;;;;;;15.00;9.90;;;5.70;99.90;;;;;;5008183;28;20408;-81
2021/11/03 03:38:51;;;;;;;13.90;9.40;;;5.70;99.90;;;;;;5000567;28;20484;-78
2021/11/03 03:41:18;;;;;;;13.10;9.25;;;5.70;99.90;;;;;;4980715;28;20408;-77
2021/11/03 03:43:44;;;;;;;13.07;9.27;;;5.80;99.90;;;;;;4977555;28;20433;-76
2021/11/03 03:46:11;;;;;;;13.13;9.45;;;5.90;99.90;;;;;;4993574;28;20421;-77
2021/11/03 03:48:37;;;;;;;12.15;8.70;;;5.90;99.90;;;;;;4993706;28;20474;-77
2021/11/03 03:51:03;;;;;;;12.95;9.50;;;5.90;99.90;;;;;;4993759;28;20402;-78
2021/11/03 03:53:29;;;;;;;15.45;9.00;;;6.00;99.90;;;;;;4994427;28;20391;-76
2021/11/03 03:55:55;;;;;;;21.30;10.10;;;6.00;99.90;;;;;;4973841;28;20444;-76
2021/11/03 03:58:20;;;;;;;13.50;9.50;;;6.20;99.90;;;;;;4979237;28;20890;-77
2021/11/03 04:00:49;;;;;;;11.57;9.63;;;6.20;99.90;;;;;;4993079;28;20502;-75
2021/11/03 04:03:14;;;;;;;15.70;10.30;;;6.20;99.90;;;;;;4992401;28;20393;-76
2021/11/03 04:05:43;;;;;;;12.50;9.80;;;6.20;99.90;;;;;;4992821;28;20398;-77
2021/11/03 04:08:13;;;;;;;18.88;11.10;;;6.20;99.90;;;;;;5009910;28;20454;-77
2021/11/03 04:10:40;;;;;;;16.33;10.88;;;6.20;99.90;;;;;;4994094;28;20407;-75
2021/11/03 04:13:07;;;;;;;15.25;10.90;;;6.30;99.90;;;;;;4992995;28;20387;-77
2021/11/03 04:15:33;;;;;;;19.55;11.07;;;6.20;99.90;;;;;;4992150;28;20465;-77
2021/11/03 04:17:59;;;;;;;19.93;12.23;;;6.20;99.90;;;;;;4994433;28;20421;-76
2021/11/03 04:20:24;;;;;;;22.83;12.60;;;6.20;99.90;;;;;;4997369;28;20410;-75
2021/11/03 04:22:50;;;;;;;19.63;12.10;;;6.20;99.90;;;;;;4993493;28;20832;-77
2021/11/03 04:25:16;;;;;;;23.00;12.30;;;6.20;99.90;;;;;;4992885;28;20409;-75
2021/11/03 04:27:42;;;;;;;19.75;12.20;;;6.20;99.90;;;;;;4998045;28;20813;-77
2021/11/03 04:30:10;;;;;;;25.17;12.30;;;6.20;99.90;;;;;;4996613;28;20411;-77
2021/11/03 04:32:35;;;;;;;19.65;12.10;;;6.20;99.90;;;;;;4990462;28;20814;-75
2021/11/03 04:35:01;;;;;;;21.52;12.32;;;6.20;99.90;;;;;;4992307;28;20398;-77
2021/11/03 04:37:26;;;;;;;22.02;12.48;;;6.20;99.90;;;;;;4993555;28;20402;-76
2021/11/03 04:39:52;;;;;;;23.50;13.45;;;6.10;99.90;;;;;;4998793;28;20398;-75
2021/11/03 04:42:18;;;;;;;19.90;12.63;;;6.10;99.90;;;;;;4992285;28;20386;-75
2021/11/03 04:44:43;;;;;;;23.52;13.02;;;6.10;99.90;;;;;;4990888;28;20411;-74
2021/11/03 04:47:09;;;;;;;21.03;13.23;;;6.20;99.90;;;;;;4987751;28;20400;-77
2021/11/03 04:49:35;;;;;;;19.70;12.50;;;6.20;99.90;;;;;;5000792;28;20452;-76
2021/11/03 04:52:01;;;;;;;17.33;12.00;;;6.20;99.90;;;;;;5012113;28;20442;-76
2021/11/03 04:54:27;;;;;;;16.33;11.83;;;6.20;99.90;;;;;;4997917;28;20887;-76
2021/11/03 04:56:52;;;;;;;18.33;12.70;;;6.20;99.90;;;;;;4992180;28;20903;-76
2021/11/03 04:59:18;;;;;;;21.85;12.90;;;6.20;99.90;;;;;;4992713;28;20821;-77
2021/11/03 05:01:44;;;;;;;17.15;11.85;;;6.10;99.90;;;;;;4992154;28;20403;-76
2021/11/03 05:04:10;;;;;;;17.80;12.60;;;6.10;99.90;;;;;;4994361;28;20517;-77
2021/11/03 05:06:38;;;;;;;19.13;12.82;;;6.10;99.90;;;;;;5038353;28;20398;-78
2021/11/03 05:09:07;;;;;;;18.23;12.70;;;6.10;99.90;;;;;;5001867;28;20409;-77
2021/11/03 05:11:33;;;;;;;20.63;13.10;;;6.10;99.90;;;;;;5003523;28;20399;-78
2021/11/03 05:13:59;;;;;;;21.60;12.73;;;6.10;99.90;;;;;;4999418;28;20457;-77
2021/11/03 05:16:27;;;;;;;22.30;13.03;;;6.10;99.90;;;;;;5004545;28;20399;-77
2021/11/03 05:18:53;;;;;;;16.85;12.52;;;6.10;99.90;;;;;;5006711;28;20412;-78
2021/11/03 05:21:19;;;;;;;19.10;12.70;;;6.10;99.90;;;;;;5019391;28;20917;-80
2021/11/03 05:23:46;;;;;;;21.63;13.20;;;6.10;99.90;;;;;;5010411;28;20429;-80
2021/11/03 05:26:17;;;;;;;25.17;13.50;;;6.10;99.90;;;;;;4990409;28;20569;-82
2021/11/03 05:28:45;;;;;;;23.67;13.18;;;6.10;99.90;;;;;;4989617;28;20431;-81
2021/11/03 05:31:12;;;;;;;22.35;13.25;;;6.00;99.90;;;;;;4999000;28;20399;-80
2021/11/03 05:33:37;;;;;;;21.95;12.93;;;6.00;99.90;;;;;;5004771;28;20740;-78
2021/11/03 05:36:03;;;;;;;19.95;12.98;;;6.00;99.90;;;;;;5004830;28;20456;-78
2021/11/03 05:38:29;;;;;;;21.50;13.40;;;6.00;99.90;;;;;;5001629;28;20512;-79
2021/11/03 05:40:55;;;;;;;22.83;13.20;;;6.00;99.90;;;;;;5004911;28;20402;-76
2021/11/03 05:43:20;;;;;;;21.77;13.10;;;6.00;99.90;;;;;;5010968;28;20417;-78
2021/11/03 05:45:46;;;;;;;22.80;13.90;;;6.00;99.90;;;;;;5013519;28;20466;-80
2021/11/03 05:48:12;;;;;;;22.00;13.55;;;6.00;99.90;;;;;;5003873;28;20448;-80
2021/11/03 05:50:38;;;;;;;31.90;13.60;;;6.00;99.90;;;;;;4985128;28;20877;-79
2021/11/03 05:53:03;;;;;;;21.83;13.85;;;6.00;99.90;;;;;;5022560;28;20398;-79
2021/11/03 05:55:30;;;;;;;18.20;12.60;;;6.00;99.90;;;;;;5006693;28;20421;-79
2021/11/03 05:57:55;;;;;;;18.75;12.48;;;6.10;99.90;;;;;;5008054;28;20980;-80
2021/11/03 06:00:26;;;;;;;20.80;13.35;;;6.20;99.90;;;;;;5003431;28;20493;-80
2021/11/03 06:02:52;;;;;;;22.38;13.50;;;6.20;99.90;;;;;;5005870;28;20382;-79
2021/11/03 06:05:17;;;;;;;23.90;13.37;;;6.20;99.90;;;;;;5004577;28;20520;-80
2021/11/03 06:07:54;;;;;;;21.93;12.93;;;6.10;99.90;;;;;;5014682;28;20447;-80
2021/11/03 06:10:29;;;;;;;19.02;13.18;;;6.20;99.90;;;;;;5009084;28;20425;-80
2021/11/03 06:12:56;;;;;;;21.83;12.90;;;6.20;99.90;;;;;;5003985;28;20404;-80
2021/11/03 06:15:22;;;;;;;20.55;13.40;;;6.20;99.90;;;;;;5004731;28;20424;-81
2021/11/03 06:17:49;;;;;;;23.30;13.30;;;6.20;99.90;;;;;;5004429;28;20907;-79
2021/11/03 06:20:15;;;;;;;20.63;13.18;;;6.20;99.90;;;;;;5006768;28;20410;-80
2021/11/03 06:22:41;;;;;;;18.35;12.98;;;6.20;99.90;;;;;;5007938;28;20391;-81
2021/11/03 06:25:09;;;;;;;19.60;12.13;;;6.30;99.90;;;;;;5007488;28;20414;-79
2021/11/03 06:27:35;;;;;;;19.17;12.77;;;6.40;99.90;;;;;;4999520;28;20394;-80
2021/11/03 06:30:01;;;;;;;18.57;12.03;;;6.40;97.50;;;;;;5004918;28;20448;-79
2021/11/03 06:32:27;;;;;;;19.00;12.02;;;6.40;97.30;;;;;;5012212;28;20390;-79
2021/11/03 06:34:52;;;;;;;18.65;11.85;;;6.50;97.60;;;;;;5004138;28;20410;-79
2021/11/03 06:37:18;;;;;;;17.25;12.00;;;6.50;95.50;;;;;;5002910;28;20410;-79
2021/11/03 06:39:43;;;;;;;18.00;12.30;;;6.50;95.30;;;;;;5004054;28;20402;-78
2021/11/03 06:42:09;;;;;;;19.27;12.32;;;6.60;93.00;;;;;;5004613;28;20418;-79
2021/11/03 06:44:34;;;;;;;23.70;13.30;;;6.70;90.70;;;;;;5002246;28;21108;-79
2021/11/03 06:47:00;;;;;;;20.17;12.00;;;6.70;89.80;;;;;;5004131;28;20402;-81
2021/11/03 06:49:26;;;;;;;21.70;12.07;;;6.70;89.70;;;;;;5006423;28;20398;-79
2021/11/03 06:51:51;;;;;;;24.53;13.27;;;6.60;91.00;;;;;;5011887;28;20416;-78
2021/11/03 06:54:21;;;;;;;21.27;12.40;;;6.90;90.30;;;;;;5011296;28;20390;-78
2021/11/03 06:56:48;;;;;;;18.50;12.60;;;6.90;89.80;;;;;;5028921;28;20424;-78
2021/11/03 06:59:14;;;;;;;18.08;11.80;;;7.00;88.00;;;;;;5027713;28;20393;-76
2021/11/03 07:01:40;;;;;;;19.27;12.50;;;7.00;86.70;;;;;;5012693;28;20405;-79
2021/11/03 07:04:06;;;;;;;17.83;11.60;;;6.90;86.30;;;;;;5014624;28;20409;-76
2021/11/03 07:06:32;;;;;;;18.95;11.75;;;6.80;88.10;;;;;;5013913;28;20397;-77
2021/11/03 07:08:58;;;;;;;15.75;10.20;;;7.20;85.40;;;;;;5015191;28;20402;-75
2021/11/03 07:11:25;;;;;;;18.30;11.25;;;7.40;79.80;;;;;;5011085;28;20486;-79
2021/11/03 07:13:50;;;;;;;14.68;10.65;;;7.40;75.00;;;;;;5001343;28;20413;-79
2021/11/03 07:16:16;;;;;;;20.90;12.43;;;7.30;76.50;;;;;;5009862;28;20398;-79
2021/11/03 07:18:42;;;;;;;17.70;11.50;;;7.10;78.20;;;;;;5023846;28;20519;-80
2021/11/03 07:21:07;;;;;;;16.17;10.70;;;7.30;77.90;;;;;;5028632;23;21062;-77
2021/11/03 07:23:33;;;;;;;17.33;11.60;;;7.30;77.10;;;;;;5013114;28;20392;-77
2021/11/03 07:25:59;;;;;;;19.75;11.50;;;7.20;79.20;;;;;;5013429;28;20428;-78
2021/11/03 07:28:25;;;;;;;17.23;12.23;;;7.40;76.40;;;;;;5016201;28;20439;-77
2021/11/03 07:30:51;;;;;;;20.60;11.70;;;7.50;75.80;;;;;;5011893;28;20551;-79
2021/11/03 07:33:18;;;;;;;18.80;12.23;;;7.70;72.30;;;;;;5013490;28;20480;-77
2021/11/03 07:35:44;;;;;;;17.65;11.30;;;7.80;70.60;;;;;;5017617;28;20393;-77
2021/11/03 07:38:10;;;;;;;16.08;10.52;;;7.80;70.20;;;;;;5016091;28;20454;-78
2021/11/03 07:40:41;;;;;;;17.92;11.32;;;7.70;70.70;;;;;;5024433;28;20385;-77
2021/11/03 07:43:09;;;;;;;15.77;10.60;;;7.60;72.10;;;;;;5024910;28;20756;-77
2021/11/03 07:45:35;;;;;;;15.73;10.00;;;7.90;68.60;;;;;;5018309;28;20427;-77
2021/11/03 07:48:01;;;;;;;13.13;9.60;;;8.10;64.50;;;;;;5013276;28;20401;-77
2021/11/03 07:50:32;;;;;;;15.43;9.38;;;8.30;61.60;;;;;;5012874;28;20468;-77
2021/11/03 07:52:59;;;;;;;14.82;8.80;;;8.30;59.40;;;;;;4995244;28;20399;-77
2021/11/03 07:55:26;;;;;;;16.23;9.57;;;8.40;58.30;;;;;;5013038;28;20408;-77
2021/11/03 07:57:51;;;;;;;15.37;10.00;;;8.40;58.30;;;;;;5012319;28;20404;-77
2021/11/03 08:00:24;;;;;;;17.00;10.57;;;8.30;58.80;;;;;;5012109;28;20393;-76
2021/11/03 08:02:49;;;;;;;17.47;10.00;;;8.20;60.70;;;;;;5013579;28;20434;-76
2021/11/03 08:05:15;;;;;;;17.83;10.93;;;8.10;62.80;;;;;;5014021;28;20408;-76
2021/11/03 08:07:41;;;;;;;18.52;10.90;;;8.00;65.30;;;;;;5014163;28;20397;-76
2021/11/03 08:10:13;;;;;;;21.67;11.30;;;7.90;66.20;;;;;;5012638;28;20438;-76
2021/11/03 08:12:40;;;;;;;20.00;11.57;;;7.90;67.60;;;;;;5004935;28;20901;-77
2021/11/03 08:15:07;;;;;;;13.35;10.00;;;7.90;69.60;;;;;;5008569;28;20901;-78
2021/11/03 08:17:35;;;;;;;20.08;11.43;;;8.10;66.30;;;;;;5007194;28;21014;-78
2021/11/03 08:20:03;;;;;;;19.27;10.65;;;8.10;66.10;;;;;;4993245;28;20477;-76
2021/11/03 08:22:31;;;;;;;15.82;10.95;;;8.10;67.90;;;;;;5010930;28;20802;-76
2021/11/03 08:24:56;;;;;;;18.07;10.50;;;8.10;67.90;;;;;;5012466;28;20393;-76
2021/11/03 08:27:23;;;;;;;17.05;10.88;;;8.40;61.80;;;;;;5006901;28;20490;-75
2021/11/03 08:29:50;;;;;;;17.38;10.93;;;8.40;62.30;;;;;;5004096;28;20398;-75
2021/11/03 08:32:20;;;;;;;16.95;10.90;;;8.60;61.60;;;;;;5009184;28;20424;-75
2021/11/03 08:34:54;;;;;;;18.30;10.90;;;8.80;57.70;;;;;;5060504;28;20423;-76
2021/11/03 08:37:24;;;;;;;18.20;10.63;;;9.00;56.30;;;;;;5043203;28;20398;-76
2021/11/03 08:39:52;;;;;;;19.00;11.25;;;9.00;55.00;;;;;;5054190;28;20402;-75
2021/11/03 08:42:19;;;;;;;20.98;10.98;;;8.90;57.20;;;;;;5053953;28;20494;-78
2021/11/03 08:44:46;;;;;;;18.98;9.30;;;9.10;54.80;;;;;;5046613;28;20948;-75
2021/11/03 08:47:12;;;;;;;17.23;10.32;;;9.30;51.20;;;;;;5034995;28;20396;-79
2021/11/03 08:49:39;;;;;;;13.07;8.32;;;9.20;53.10;;;;;;5052250;28;20414;-78
2021/11/03 08:52:06;;;;;;;17.08;10.05;;;9.40;50.20;;;;;;5055406;28;20397;-79
2021/11/03 08:54:36;;;;;;;15.17;10.10;;;9.20;51.50;;;;;;5046595;28;20480;-78
2021/11/03 08:57:02;;;;;;;18.10;10.80;;;9.20;53.00;;;;;;5044256;28;20577;-79
2021/11/03 08:59:28;;;;;;;15.52;9.85;;;9.20;54.10;;;;;;5049143;28;20434;-78
2021/11/03 09:01:54;;;;;;;15.30;9.50;;;9.30;52.30;;;;;;5051273;28;20418;-78
2021/11/03 09:04:20;;;;;;;14.05;8.40;;;9.40;51.50;;;;;;5045123;28;20406;-78
2021/11/03 09:06:46;;;;;;;15.82;9.75;;;9.50;50.50;;;;;;5048681;28;20465;-77
2021/11/03 09:09:11;;;;;;;15.65;9.13;;;9.50;49.70;;;;;;5044871;28;20429;-78
2021/11/03 09:11:37;;;;;;;16.05;9.95;;;9.50;50.40;;;;;;5046364;28;20501;-78
2021/11/03 09:14:03;;;;;;;23.47;10.67;;;9.40;51.30;;;;;;5041911;28;20915;-79
2021/11/03 09:16:29;;;;;;;17.10;10.37;;;9.30;52.70;;;;;;5046724;28;20409;-78
2021/11/03 09:18:55;;;;;;;18.43;11.00;;;9.20;55.10;;;;;;5045915;28;20878;-79
2021/11/03 09:21:22;;;;;;;17.80;10.43;;;9.30;53.80;;;;;;5041852;28;20426;-78
2021/11/03 09:23:48;;;;;;;17.50;9.90;;;9.30;53.30;;;;;;5046332;28;20414;-78
2021/11/03 09:26:16;;;;;;;14.45;9.32;;;9.40;52.60;;;;;;5041634;28;20744;-79
2021/11/03 09:28:44;;;;;;;18.88;10.85;;;9.50;50.60;;;;;;5050330;28;20410;-79
2021/11/03 09:31:10;;;;;;;16.23;9.65;;;9.60;50.70;;;;;;5050075;28;20387;-78
2021/11/03 09:33:36;;;;;;;26.15;11.20;;;9.70;50.00;;;;;;5031972;28;20935;-78
2021/11/03 09:36:07;;;;;;;14.93;10.18;;;9.60;50.70;;;;;;5037670;28;20402;-78
2021/11/03 09:38:33;;;;;;;16.00;9.90;;;9.50;52.30;;;;;;5039490;28;20424;-78
2021/11/03 09:41:01;;;;;;;15.20;9.82;;;9.50;52.00;;;;;;5049125;28;20836;-78
2021/11/03 09:43:36;;;;;;;20.83;9.75;;;9.70;51.20;;;;;;5049050;28;20441;-77
2021/11/03 09:46:16;;;;;;;19.00;10.00;;;9.70;51.30;;;;;;5027683;28;20387;-78
2021/11/03 09:48:43;;;;;;;18.27;10.70;;;9.90;49.60;;;;;;5026134;28;20417;-76
2021/11/03 09:51:17;;;;;;;14.17;9.70;;;9.90;49.40;;;;;;5041315;28;20482;-79
2021/11/03 09:53:51;;;;;;;13.70;8.90;;;9.90;51.30;;;;;;5031769;28;20918;-76
2021/11/03 09:56:23;;;;;;;14.60;9.70;;;10.10;49.20;;;;;;5035484;28;20419;-74
2021/11/03 09:59:16;;;;;;;16.97;10.50;;;10.10;50.20;;;;;;5029899;28;20457;-79
2021/11/03 10:01:57;;;;;;;16.08;9.80;;;10.00;50.00;;;;;;5033398;28;20474;-78
2021/11/03 10:04:42;;;;;;;16.58;9.82;;;10.00;50.50;;;;;;5023944;28;20959;-78
2021/11/03 10:07:19;;;;;;;19.42;9.38;;;10.10;49.20;;;;;;5031262;28;20413;-78
2021/11/03 10:09:45;;;;;;;11.90;9.00;;;10.10;47.40;;;;;;5037726;28;20414;-76
2021/11/03 10:12:13;;;;;;;17.10;10.33;;;10.00;47.70;;;;;;5036583;28;21048;-78
2021/11/03 10:14:41;;;;;;;14.52;9.73;;;10.10;48.60;;;;;;5032452;28;20435;-77
2021/11/03 10:17:29;;;;;;;20.35;11.10;;;10.10;50.10;;;;;;5043051;28;20452;-78
2021/11/03 10:19:56;;;;;;;13.23;9.55;;;10.00;49.50;;;;;;5046190;28;20403;-80
2021/11/03 10:22:37;;;;;;;16.23;9.68;;;10.10;50.00;;;;;;5051618;28;20394;-80
2021/11/03 10:25:16;;;;;;;17.90;10.60;;;10.20;48.30;;;;;;5049180;28;20395;-80
2021/11/03 10:27:51;;;;;;;16.50;10.85;;;10.10;48.80;;;;;;5051186;28;20514;-80
2021/11/03 10:30:22;;;;;;;27.60;10.30;;;10.10;49.80;;;;;;5039224;28;20403;-79
2021/11/03 10:32:48;;;;;;;17.98;9.55;;;10.10;49.20;;;;;;5044332;28;20479;-80
2021/11/03 10:35:17;;;;;;;16.63;9.50;;;10.10;47.70;;;;;;5051584;28;20502;-80
2021/11/03 10:37:46;;;;;;;18.88;11.02;;;10.10;48.00;;;;;;5049640;28;20382;-80
2021/11/03 10:40:22;;;;;;;16.52;10.77;;;10.00;49.40;;;;;;5049036;28;20413;-80
2021/11/03 10:43:01;;;;;;;21.15;10.30;;;10.00;48.50;;;;;;5035045;28;20424;-77
2021/11/03 10:45:31;;;;;;;15.70;10.40;;;10.00;48.70;;;;;;5049109;28;20414;-77
2021/11/03 10:48:24;;;;;;;15.95;11.20;;;9.90;49.50;;;;;;5052133;28;20451;-76
2021/11/03 10:50:56;;;;;;;18.30;10.63;;;9.90;49.60;;;;;;5035756;28;20531;-76
2021/11/03 10:53:26;;;;;;;16.77;11.13;;;9.90;49.70;;;;;;5034085;28;20403;-75
2021/11/03 10:56:14;;;;;;;17.70;10.70;;;9.80;50.70;;;;;;5024378;28;20894;-76
2021/11/03 10:58:49;;;;;;;18.55;10.50;;;9.80;49.50;;;;;;5052552;28;20400;-77
2021/11/03 11:01:38;;;;;;;17.15;11.52;;;9.80;50.00;;;;;;5051822;28;20894;-76
2021/11/03 11:04:23;;;;;;;16.63;10.80;;;9.80;50.40;;;;;;5020200;28;20411;-76
2021/11/03 11:06:55;;;;;;;21.30;12.00;;;9.80;49.90;;;;;;5033011;28;20383;-78
2021/11/03 11:09:36;;;;;;;17.75;11.20;;;9.70;50.80;;;;;;5038400;28;20400;-75
2021/11/03 11:12:38;;;;;;;16.80;11.27;;;9.70;51.00;;;;;;5053950;28;20897;-77
2021/11/03 11:15:19;;;;;;;21.05;12.10;;;9.80;51.70;;;;;;5048017;28;20401;-77
2021/11/03 11:18:19;;;;;;;18.13;11.43;;;9.80;50.80;;;;;;5052187;28;20509;-76
2021/11/03 11:20:50;;;;;;;32.33;11.90;;;9.90;49.70;;;;;;5036454;28;20391;-76
2021/11/03 11:23:20;;;;;;;20.27;12.55;;;9.90;51.20;;;;;;5033091;28;20407;-75
2021/11/03 11:25:51;;;;;;;17.35;11.90;;;9.90;51.50;;;;;;5049639;28;20925;-75
2021/11/03 11:28:24;;;;;;;19.88;12.07;;;10.00;50.50;;;;;;5053725;28;20415;-77
2021/11/03 11:31:00;;;;;;;18.00;11.70;;;10.00;50.30;;;;;;5049080;28;20492;-77
2021/11/03 11:33:30;;;;;;;16.23;11.10;;;10.10;49.50;;;;;;5052326;28;20808;-77
2021/11/03 11:36:01;;;;;;;20.15;12.05;;;10.00;48.20;;;;;;5042584;28;20474;-76
2021/11/03 11:38:49;;;;;;;17.45;11.90;;;9.90;50.20;;;;;;5023380;28;20737;-76
2021/11/03 11:41:30;;;;;;;20.48;11.98;;;9.80;51.20;;;;;;5033108;28;20476;-77
2021/11/03 11:44:18;;;;;;;22.40;11.82;;;9.80;51.00;;;;;;5032238;28;20398;-76
2021/11/03 11:46:46;;;;;;;17.48;11.82;;;9.70;52.10;;;;;;5031541;28;20414;-77
2021/11/03 11:49:29;;;;;;;18.83;11.63;;;9.80;52.80;;;;;;5031053;28;20961;-75
2021/11/03 11:51:59;;;;;;;21.63;12.35;;;9.70;53.10;;;;;;5042906;28;20405;-76
2021/11/03 11:54:30;;;;;;;17.25;11.15;;;9.70;53.80;;;;;;5030793;28;20411;-77
2021/11/03 11:57:10;;;;;;;17.92;12.20;;;9.70;53.20;;;;;;5045344;28;20400;-77
2021/11/03 12:00:09;;;;;;;22.65;12.70;;;9.70;55.10;;;;;;5050603;28;20389;-73
2021/11/03 12:03:07;;;;;;;20.65;13.20;;;9.70;56.20;;;;;;5050512;28;20838;-76
2021/11/03 12:05:42;;;;;;;18.15;12.43;;;9.70;57.40;;;;;;5004160;28;20737;-77
2021/11/03 12:08:17;;;;;;;20.75;12.20;;;9.70;56.30;;;;;;5049978;28;20773;-78
2021/11/03 12:10:55;;;;;;;20.65;13.18;;;9.70;57.90;;;;;;5038332;28;20395;-75
2021/11/03 12:13:32;;;;;;;111.53;61.08;;;9.70;57.60;;;;;;5047055;28;20428;-77
2021/11/03 12:16:13;;;;;;;88.30;50.20;;;9.70;73.00;;;;;;5038264;28;20910;-75
2021/11/03 12:18:41;;;;;;;51.27;28.53;;;10.00;74.00;;;;;;5032140;28;20437;-77
2021/11/03 12:21:24;;;;;;;121.22;74.50;;;10.20;79.90;;;;;;5035016;28;20461;-77
2021/11/03 12:24:05;;;;;;;32.17;20.10;;;10.10;80.40;;;;;;5044979;28;20929;-77
2021/11/03 12:26:33;;;;;;;80.40;47.17;;;10.00;70.20;;;;;;5047279;28;20805;-76
2021/11/03 12:29:17;;;;;;;25.83;15.90;;;10.00;76.70;;;;;;5035910;28;20403;-76
2021/11/03 12:31:42;;;;;;;26.75;15.23;;;10.10;66.90;;;;;;5049023;28;20798;-76
2021/11/03 12:34:08;;;;;;;33.70;20.80;;;9.90;66.20;;;;;;5050415;28;20413;-76
2021/11/03 12:36:48;;;;;;;22.77;13.63;;;9.90;69.60;;;;;;5041443;28;20887;-76
2021/11/03 12:39:29;;;;;;;28.40;17.50;;;10.10;60.30;;;;;;5041150;28;20385;-77
2021/11/03 12:42:02;;;;;;;36.70;22.00;;;10.10;66.10;;;;;;5041369;28;20396;-76
2021/11/03 12:44:41;;;;;;;44.20;25.50;;;10.20;65.10;;;;;;5051001;28;20512;-76
2021/11/03 12:47:26;;;;;;;35.22;22.35;;;10.20;63.50;;;;;;5043687;28;20397;-76
2021/11/03 12:50:09;;;;;;;21.75;13.45;;;10.10;65.80;;;;;;5045411;28;20398;-75